Terminal Aerodrome Forecast
Issued by NWS

Home | Current Version | Previous Version | Text Only | Print | Product List | Glossary On
Versions: 1 2 3 4 5 6 7 8 9 10 11 12 13
000
FTAK31 PAJN 290500
TAFAKT
TAF
PAKT 290527Z 2906/3006 32005KT P6SM SKC
     FM300000 13005KT P6SM SCT070 BKN090
      AMD LTD TO CLD VIS AND WIND TIL 291500=

USA.gov is the U.S. government's official web portal to all federal, state and local government web resources and services.